createdAt,value
2017-09-26T00:01:11.529Z,22.43
2017-09-26T00:03:37.769Z,23.80
2017-09-26T00:06:04.298Z,23.60
2017-09-26T00:08:30.559Z,20.30
2017-09-26T00:10:56.799Z,20.47
2017-09-26T00:13:23.029Z,19.80
2017-09-26T00:15:49.370Z,21.20
2017-09-26T00:18:15.602Z,16.27
2017-09-26T00:20:41.840Z,18.83
2017-09-26T00:23:08.127Z,20.70
2017-09-26T00:25:34.369Z,17.83
2017-09-26T00:28:00.604Z,19.87
2017-09-26T00:30:26.932Z,18.10
2017-09-26T00:32:53.281Z,17.07
2017-09-26T00:35:19.591Z,17.03
2017-09-26T00:37:45.879Z,17.70
2017-09-26T00:40:12.151Z,18.63
2017-09-26T00:42:38.394Z,20.67
2017-09-26T00:45:04.686Z,20.77
2017-09-26T00:47:31.722Z,24.23
2017-09-26T00:49:58.039Z,20.53
2017-09-26T00:52:24.317Z,16.73
2017-09-26T00:54:51.295Z,20.33
2017-09-26T00:57:17.542Z,19.50
2017-09-26T00:59:43.818Z,16.37
2017-09-26T01:02:10.061Z,20.63
2017-09-26T01:04:37.069Z,18.30
2017-09-26T01:07:06.675Z,27.40
2017-09-26T01:09:32.917Z,18.20
2017-09-26T01:11:59.150Z,19.73
2017-09-26T01:14:25.418Z,17.87
2017-09-26T01:16:51.645Z,22.47
2017-09-26T01:19:17.884Z,20.17
2017-09-26T01:21:44.169Z,18.63
2017-09-26T01:24:10.419Z,23.93
2017-09-26T01:26:37.402Z,19.97
2017-09-26T01:29:03.672Z,19.40
2017-09-26T01:31:29.919Z,20.77
2017-09-26T01:33:56.146Z,16.57
2017-09-26T01:36:22.420Z,18.07
2017-09-26T01:38:48.659Z,20.07
2017-09-26T01:41:20.638Z,17.80
2017-09-26T01:43:46.934Z,18.90
2017-09-26T01:46:13.198Z,20.93
2017-09-26T01:48:39.454Z,18.07
2017-09-26T01:51:05.738Z,21.67
2017-09-26T01:53:32.061Z,21.73
2017-09-26T01:55:59.052Z,20.40
2017-09-26T01:58:31.270Z,21.73
2017-09-26T02:00:57.605Z,20.00
2017-09-26T02:03:23.876Z,19.40
2017-09-26T02:05:50.119Z,23.47
2017-09-26T02:08:17.352Z,19.77
2017-09-26T02:10:43.581Z,19.90
2017-09-26T02:13:09.826Z,20.30
2017-09-26T02:15:36.052Z,20.43
2017-09-26T02:18:02.273Z,22.90
2017-09-26T02:20:28.734Z,19.17
2017-09-26T02:22:55.159Z,21.40
2017-09-26T02:25:21.398Z,21.00
2017-09-26T02:27:47.788Z,19.20
2017-09-26T02:30:14.046Z,20.73
2017-09-26T02:32:41.047Z,19.97
2017-09-26T02:35:07.326Z,23.67
2017-09-26T02:37:33.554Z,20.97
2017-09-26T02:39:59.794Z,21.00
2017-09-26T02:42:27.649Z,24.90
2017-09-26T02:44:53.886Z,18.80
2017-09-26T02:47:20.120Z,25.40
2017-09-26T02:49:46.375Z,22.27
2017-09-26T02:52:12.630Z,22.60
2017-09-26T02:54:38.879Z,21.33
2017-09-26T02:57:05.134Z,27.10
2017-09-26T02:59:31.394Z,19.97
2017-09-26T03:01:57.715Z,28.07
2017-09-26T03:04:23.980Z,21.00
2017-09-26T03:06:50.266Z,21.23
2017-09-26T03:09:20.002Z,26.13
2017-09-26T03:11:46.247Z,21.00
2017-09-26T03:14:12.483Z,21.13
2017-09-26T03:16:38.727Z,31.50
2017-09-26T03:19:04.999Z,24.70
2017-09-26T03:21:31.933Z,27.87
2017-09-26T03:23:58.175Z,23.77
2017-09-26T03:26:24.434Z,28.80
2017-09-26T03:28:50.666Z,24.90
2017-09-26T03:31:16.906Z,24.47
2017-09-26T03:33:43.174Z,26.30
2017-09-26T03:36:09.417Z,26.73
2017-09-26T03:38:36.394Z,27.10
2017-09-26T03:41:02.647Z,26.47
2017-09-26T03:43:28.885Z,30.50
2017-09-26T03:45:55.117Z,28.40
2017-09-26T03:48:21.370Z,31.00
2017-09-26T03:50:47.614Z,31.17
2017-09-26T03:53:13.872Z,26.83
2017-09-26T03:55:40.158Z,25.83
2017-09-26T03:58:06.414Z,30.20
2017-09-26T04:00:33.397Z,33.93
2017-09-26T04:02:59.663Z,27.90
2017-09-26T04:05:25.906Z,27.40
2017-09-26T04:07:52.146Z,25.30
2017-09-26T04:10:20.458Z,29.53
2017-09-26T04:12:47.442Z,29.53
2017-09-26T04:15:13.671Z,30.20
2017-09-26T04:17:39.950Z,29.43
2017-09-26T04:20:06.929Z,34.23
2017-09-26T04:22:33.182Z,29.67
2017-09-26T04:24:59.462Z,29.40
2017-09-26T04:27:25.718Z,32.43
2017-09-26T04:29:51.942Z,31.23
2017-09-26T04:32:18.203Z,28.37
2017-09-26T04:34:44.465Z,28.00
2017-09-26T04:37:10.736Z,33.73
2017-09-26T04:39:36.990Z,37.23
2017-09-26T04:42:03.280Z,34.20
2017-09-26T04:44:30.257Z,31.70
2017-09-26T04:46:56.598Z,39.33
2017-09-26T04:49:22.834Z,30.70
2017-09-26T04:51:49.078Z,35.13
2017-09-26T04:54:15.347Z,32.57
2017-09-26T04:56:41.574Z,39.97
2017-09-26T04:59:07.834Z,34.23
2017-09-26T05:01:34.098Z,28.67
2017-09-26T05:04:00.334Z,35.00
2017-09-26T05:06:26.562Z,32.23
2017-09-26T05:08:52.811Z,33.73
2017-09-26T05:11:19.301Z,42.83
2017-09-26T05:13:45.547Z,33.00
2017-09-26T05:16:11.814Z,37.07
2017-09-26T05:18:38.102Z,31.50
2017-09-26T05:21:04.332Z,38.63
2017-09-26T05:23:30.575Z,31.77
2017-09-26T05:25:57.574Z,35.90
2017-09-26T05:28:23.814Z,40.57
2017-09-26T05:30:50.090Z,38.53
2017-09-26T05:33:16.382Z,35.60
2017-09-26T05:35:42.682Z,35.10
2017-09-26T05:38:08.971Z,42.40
2017-09-26T05:40:35.258Z,43.63
2017-09-26T05:43:01.603Z,37.07
2017-09-26T05:45:27.871Z,40.27
2017-09-26T05:47:54.102Z,43.67
2017-09-26T05:50:20.358Z,40.33
2017-09-26T05:52:46.633Z,36.47
2017-09-26T05:55:13.618Z,44.80
2017-09-26T05:57:40.012Z,40.87
2017-09-26T06:00:06.375Z,39.30
2017-09-26T06:02:32.714Z,39.87
2017-09-26T06:04:58.951Z,41.70
2017-09-26T06:07:25.219Z,41.03
2017-09-26T06:09:51.459Z,39.90
2017-09-26T06:12:18.033Z,39.70
2017-09-26T06:14:44.350Z,43.70
2017-09-26T06:17:10.598Z,42.80
2017-09-26T06:19:36.834Z,42.77
2017-09-26T06:22:03.109Z,40.10
2017-09-26T06:24:29.382Z,42.37
2017-09-26T06:26:55.632Z,38.03
2017-09-26T06:29:21.885Z,46.07
2017-09-26T06:31:48.139Z,44.80
2017-09-26T06:34:15.118Z,45.93
2017-09-26T06:36:41.390Z,44.30
2017-09-26T06:39:07.665Z,49.90
2017-09-26T06:41:33.930Z,49.10
2017-09-26T06:44:00.195Z,42.40
2017-09-26T06:46:26.454Z,53.40
2017-09-26T06:48:52.728Z,45.40
2017-09-26T06:51:19.002Z,48.40
2017-09-26T06:53:45.267Z,43.03
2017-09-26T06:56:11.532Z,47.10
2017-09-26T06:58:37.798Z,48.00
2017-09-26T07:01:04.045Z,51.60
2017-09-26T07:03:30.298Z,54.77
2017-09-26T07:05:56.551Z,46.00
2017-09-26T07:08:22.806Z,46.50
2017-09-26T07:10:49.046Z,50.97
2017-09-26T07:13:15.661Z,48.80
2017-09-26T07:15:41.915Z,56.17
2017-09-26T07:18:08.187Z,46.63
2017-09-26T07:20:34.447Z,45.90
2017-09-26T07:23:00.715Z,50.73
2017-09-26T07:25:26.990Z,49.40
2017-09-26T07:27:53.990Z,52.63
2017-09-26T07:30:20.251Z,50.73
2017-09-26T07:32:46.506Z,48.37
2017-09-26T07:35:12.766Z,44.33
2017-09-26T07:37:39.586Z,47.33
2017-09-26T07:40:05.830Z,45.83
2017-09-26T07:42:32.239Z,51.47
2017-09-26T07:44:59.238Z,53.40
2017-09-26T07:47:25.558Z,43.53
2017-09-26T07:49:51.854Z,50.20
2017-09-26T07:52:18.105Z,47.67
2017-09-26T07:54:45.083Z,50.53
2017-09-26T07:57:11.394Z,51.30
2017-09-26T07:59:37.643Z,51.77
2017-09-26T08:02:04.504Z,53.93
2017-09-26T08:04:31.364Z,54.00
2017-09-26T08:06:58.254Z,47.73
2017-09-26T08:09:25.831Z,53.93
2017-09-26T08:11:52.109Z,58.40
2017-09-26T08:14:19.559Z,53.57
2017-09-26T08:16:45.817Z,57.00
2017-09-26T08:19:12.075Z,47.43
2017-09-26T08:21:38.337Z,50.07
2017-09-26T08:24:04.643Z,52.70
2017-09-26T08:26:30.892Z,50.50
2017-09-26T08:28:57.132Z,56.90
2017-09-26T08:31:23.365Z,54.43
2017-09-26T08:33:49.611Z,54.70
2017-09-26T08:36:15.850Z,53.27
2017-09-26T08:38:42.109Z,60.03
2017-09-26T08:41:09.122Z,59.30
2017-09-26T08:43:35.429Z,56.07
2017-09-26T08:46:01.742Z,53.87
2017-09-26T08:48:28.159Z,55.70
2017-09-26T08:50:54.430Z,62.47
2017-09-26T08:53:20.666Z,59.80
2017-09-26T08:55:46.918Z,55.83
2017-09-26T08:58:42.320Z,56.97
2017-09-26T09:01:16.915Z,55.03
2017-09-26T09:03:45.076Z,51.53
2017-09-26T09:06:11.321Z,51.27
2017-09-26T09:08:37.582Z,58.30
2017-09-26T09:11:03.811Z,56.80
2017-09-26T09:13:30.042Z,56.20
2017-09-26T09:15:56.573Z,58.77
2017-09-26T09:18:22.802Z,58.90
2017-09-26T09:20:49.032Z,58.37
2017-09-26T09:23:15.306Z,54.30
2017-09-26T09:25:42.305Z,55.63
2017-09-26T09:28:08.546Z,61.93
2017-09-26T09:30:34.812Z,65.97
2017-09-26T09:33:01.050Z,60.63
2017-09-26T09:35:27.323Z,54.70
2017-09-26T09:37:53.577Z,55.97
2017-09-26T09:40:19.834Z,58.80
2017-09-26T09:42:46.071Z,48.10
2017-09-26T09:45:12.342Z,58.13
2017-09-26T09:47:38.570Z,60.07
2017-09-26T09:50:04.803Z,58.13
2017-09-26T09:52:31.089Z,54.50
2017-09-26T09:54:57.326Z,52.80
2017-09-26T09:57:23.582Z,52.50
2017-09-26T09:59:49.857Z,61.97
2017-09-26T10:02:20.179Z,56.77
2017-09-26T10:04:46.419Z,60.90
2017-09-26T10:07:12.674Z,55.70
2017-09-26T10:09:38.925Z,61.77
2017-09-26T10:12:05.922Z,56.17
2017-09-26T10:14:32.169Z,57.17
2017-09-26T10:16:58.754Z,59.10
2017-09-26T10:19:25.000Z,55.27
2017-09-26T10:21:51.250Z,53.83
2017-09-26T10:24:17.498Z,64.47
2017-09-26T10:26:43.749Z,57.47
2017-09-26T10:29:10.027Z,55.50
2017-09-26T10:31:36.262Z,57.03
2017-09-26T10:34:02.511Z,59.23
2017-09-26T10:36:28.789Z,62.53
2017-09-26T10:38:55.031Z,68.40
2017-09-26T10:41:21.262Z,59.60
2017-09-26T10:43:47.507Z,55.20
2017-09-26T10:46:13.748Z,53.20
2017-09-26T10:48:39.981Z,57.93
2017-09-26T10:51:06.234Z,58.43
2017-09-26T10:53:32.506Z,61.13
2017-09-26T10:55:58.749Z,67.90
2017-09-26T10:58:25.019Z,55.57
2017-09-26T11:00:51.254Z,61.67
2017-09-26T11:03:17.503Z,57.67
2017-09-26T11:05:43.773Z,64.20
2017-09-26T11:08:10.009Z,59.57
2017-09-26T11:10:36.990Z,67.30
2017-09-26T11:13:03.274Z,61.60
2017-09-26T11:15:29.535Z,60.83
2017-09-26T11:17:56.043Z,62.23
2017-09-26T11:20:22.314Z,58.10
2017-09-26T11:22:48.594Z,54.83
2017-09-26T11:25:14.858Z,67.00
2017-09-26T11:27:41.846Z,54.73
2017-09-26T11:30:08.082Z,51.97
2017-09-26T11:32:34.338Z,65.67
2017-09-26T11:35:00.606Z,52.90
2017-09-26T11:37:26.852Z,47.93
2017-09-26T11:39:53.094Z,52.63
2017-09-26T11:42:19.386Z,51.70
2017-09-26T11:44:46.371Z,52.67
2017-09-26T11:47:12.617Z,57.90
2017-09-26T11:49:38.882Z,50.73
2017-09-26T11:52:05.153Z,56.80
2017-09-26T11:54:31.442Z,48.67
2017-09-26T11:56:57.774Z,50.60
2017-09-26T11:59:24.047Z,49.77
2017-09-26T12:01:50.294Z,52.47
2017-09-26T12:04:16.545Z,48.90
2017-09-26T12:06:42.769Z,49.47
2017-09-26T12:09:09.030Z,42.80
2017-09-26T12:11:35.284Z,49.40
2017-09-26T12:14:06.387Z,48.30
2017-09-26T12:16:32.634Z,44.77
2017-09-26T12:18:59.478Z,49.20
2017-09-26T12:21:25.734Z,45.87
2017-09-26T12:23:52.186Z,49.70
2017-09-26T12:26:19.223Z,45.93
2017-09-26T12:28:46.202Z,49.00
2017-09-26T12:31:13.413Z,48.00
2017-09-26T12:33:39.879Z,45.77
2017-09-26T12:36:06.103Z,46.20
2017-09-26T12:38:33.079Z,44.30
2017-09-26T12:40:59.319Z,50.87
2017-09-26T12:43:25.588Z,48.67
2017-09-26T12:45:51.930Z,43.77
2017-09-26T12:48:18.346Z,49.83
2017-09-26T12:50:44.606Z,45.57
2017-09-26T12:53:11.778Z,49.63
2017-09-26T12:55:38.211Z,49.80
2017-09-26T12:58:04.481Z,52.50
2017-09-26T13:00:30.778Z,49.60
2017-09-26T13:02:57.199Z,43.63
2017-09-26T13:05:23.437Z,45.03
2017-09-26T13:07:49.699Z,45.60
2017-09-26T13:10:16.109Z,43.80
2017-09-26T13:12:42.362Z,45.90
2017-09-26T13:15:08.606Z,46.50
2017-09-26T13:17:34.900Z,46.73
2017-09-26T13:20:01.415Z,44.10
2017-09-26T13:22:27.783Z,39.57
2017-09-26T13:24:54.026Z,44.17
2017-09-26T13:27:20.250Z,46.03
2017-09-26T13:29:46.495Z,39.73
2017-09-26T13:32:12.758Z,45.17
2017-09-26T13:34:39.010Z,39.20
2017-09-26T13:37:05.254Z,43.40
2017-09-26T13:39:31.566Z,39.63
2017-09-26T13:41:57.939Z,42.63
2017-09-26T13:44:24.170Z,37.00
2017-09-26T13:46:50.423Z,48.50
2017-09-26T13:49:16.661Z,50.70
2017-09-26T13:51:42.901Z,38.73
2017-09-26T13:54:09.159Z,41.13
2017-09-26T13:56:35.412Z,45.57
2017-09-26T13:59:01.715Z,44.03
2017-09-26T14:01:28.030Z,45.37
2017-09-26T14:03:54.266Z,43.00
2017-09-26T14:06:20.520Z,47.53
2017-09-26T14:08:47.543Z,45.07
2017-09-26T14:11:13.795Z,37.33
2017-09-26T14:13:40.110Z,47.40
2017-09-26T14:16:06.367Z,44.20
2017-09-26T14:18:33.372Z,45.87
2017-09-26T14:20:59.886Z,43.53
2017-09-26T14:23:26.156Z,44.03
2017-09-26T14:25:52.394Z,45.90
2017-09-26T14:28:18.621Z,43.90
2017-09-26T14:30:44.870Z,43.30
2017-09-26T14:33:11.116Z,47.30
2017-09-26T14:35:37.359Z,45.63
2017-09-26T14:38:04.374Z,38.87
2017-09-26T14:40:30.655Z,44.67
2017-09-26T14:42:56.896Z,39.80
2017-09-26T14:45:23.223Z,42.80
2017-09-26T14:47:49.470Z,44.57
2017-09-26T14:50:15.729Z,41.67
2017-09-26T14:52:41.998Z,40.67
2017-09-26T14:55:08.232Z,41.80
2017-09-26T14:57:34.454Z,44.97
2017-09-26T15:00:00.707Z,40.43
2017-09-26T15:02:26.956Z,40.63
2017-09-26T15:04:53.214Z,31.57
2017-09-26T15:07:19.492Z,46.10
2017-09-26T15:09:45.821Z,45.13
2017-09-26T15:12:12.097Z,38.63
2017-09-26T15:14:39.098Z,43.43
2017-09-26T15:17:05.331Z,45.87
2017-09-26T15:19:31.623Z,40.40
2017-09-26T15:21:58.255Z,43.97
2017-09-26T15:24:24.490Z,44.27
2017-09-26T15:26:50.748Z,44.90
2017-09-26T15:29:17.758Z,45.47
2017-09-26T15:31:43.986Z,46.43
2017-09-26T15:34:10.217Z,52.83
2017-09-26T15:36:36.462Z,47.37
2017-09-26T15:39:02.718Z,45.70
2017-09-26T15:41:28.949Z,53.30
2017-09-26T15:43:55.214Z,44.10
2017-09-26T15:46:21.455Z,57.13
2017-09-26T15:48:55.877Z,58.30
2017-09-26T15:51:32.211Z,50.97
2017-09-26T15:53:58.462Z,45.57
2017-09-26T15:56:24.718Z,47.13
2017-09-26T15:58:51.007Z,46.80
2017-09-26T16:01:17.294Z,47.53
2017-09-26T16:03:43.582Z,52.33
2017-09-26T16:06:10.564Z,53.97
2017-09-26T16:08:36.846Z,52.17
2017-09-26T16:11:03.824Z,49.00
2017-09-26T16:13:30.085Z,48.50
2017-09-26T16:15:56.317Z,50.97
2017-09-26T16:18:22.562Z,49.13
2017-09-26T16:20:48.841Z,47.80
2017-09-26T16:23:16.094Z,53.03
2017-09-26T16:25:42.338Z,45.30
2017-09-26T16:28:08.586Z,55.57
2017-09-26T16:30:34.861Z,55.47
2017-09-26T16:33:01.934Z,48.80
2017-09-26T16:35:28.981Z,47.07
2017-09-26T16:37:55.218Z,50.13
2017-09-26T16:40:21.465Z,47.53
2017-09-26T16:42:47.724Z,44.27
2017-09-26T16:45:13.946Z,39.57
2017-09-26T16:47:40.178Z,38.87
2017-09-26T16:50:06.430Z,37.60
2017-09-26T16:52:32.654Z,34.27
2017-09-26T16:54:58.895Z,41.57
2017-09-26T16:57:25.164Z,36.63
2017-09-26T16:59:51.424Z,44.60
2017-09-26T17:02:17.679Z,44.83
2017-09-26T17:04:43.938Z,47.00
2017-09-26T17:07:10.923Z,43.40
2017-09-26T17:09:37.231Z,43.43
2017-09-26T17:12:03.514Z,49.50
2017-09-26T17:14:29.778Z,50.67
2017-09-26T17:16:56.767Z,46.17
2017-09-26T17:19:23.076Z,55.10
2017-09-26T17:21:49.326Z,46.50
2017-09-26T17:24:15.829Z,52.17
2017-09-26T17:26:42.085Z,54.90
2017-09-26T17:29:08.407Z,50.10
2017-09-26T17:31:34.660Z,49.10
2017-09-26T17:34:00.937Z,49.53
2017-09-26T17:36:27.203Z,53.23
2017-09-26T17:38:53.477Z,52.37
2017-09-26T17:41:19.785Z,52.90
2017-09-26T17:43:46.112Z,49.07
2017-09-26T17:46:12.416Z,52.37
2017-09-26T17:48:38.793Z,48.97
2017-09-26T17:51:05.026Z,51.03
2017-09-26T17:53:31.253Z,49.10
2017-09-26T17:55:57.509Z,50.23
2017-09-26T17:58:23.762Z,46.73
2017-09-26T18:00:50.023Z,51.87
2017-09-26T18:03:17.071Z,48.30
2017-09-26T18:05:43.394Z,51.50
2017-09-26T18:08:10.373Z,44.10
2017-09-26T18:10:36.675Z,46.30
2017-09-26T18:13:03.001Z,46.87
2017-09-26T18:15:30.054Z,48.60
2017-09-26T18:17:57.187Z,48.57
2017-09-26T18:20:23.513Z,48.63
2017-09-26T18:22:49.849Z,52.00
2017-09-26T18:25:17.313Z,43.33
2017-09-26T18:27:43.643Z,47.77
2017-09-26T18:30:09.978Z,45.67
2017-09-26T18:32:36.291Z,43.23
2017-09-26T18:35:02.605Z,48.00
2017-09-26T18:37:29.096Z,50.57
2017-09-26T18:39:55.419Z,42.93
2017-09-26T18:42:21.702Z,49.77
2017-09-26T18:44:48.034Z,44.03
2017-09-26T18:47:14.397Z,49.00
2017-09-26T18:49:40.742Z,42.83
2017-09-26T18:52:07.071Z,46.73
2017-09-26T18:54:33.473Z,48.60
2017-09-26T18:56:59.795Z,46.23
2017-09-26T18:59:26.099Z,50.80
2017-09-26T19:01:52.418Z,57.70
2017-09-26T19:04:18.867Z,54.00
2017-09-26T19:06:45.183Z,47.80
2017-09-26T19:09:12.278Z,48.13
2017-09-26T19:11:38.599Z,50.60
2017-09-26T19:14:04.987Z,46.60
2017-09-26T19:16:32.054Z,44.47
2017-09-26T19:18:59.287Z,62.60
2017-09-26T19:21:25.573Z,49.47
2017-09-26T19:23:51.886Z,48.83
2017-09-26T19:26:18.453Z,49.83
2017-09-26T19:28:44.713Z,48.20
2017-09-26T19:31:11.042Z,65.90
2017-09-26T19:33:37.295Z,47.33
2017-09-26T19:36:03.564Z,46.63
2017-09-26T19:38:29.915Z,49.03
2017-09-26T19:40:56.268Z,54.10
2017-09-26T19:43:22.565Z,55.27
2017-09-26T19:45:49.770Z,51.40
2017-09-26T19:48:16.093Z,55.07
2017-09-26T19:50:42.413Z,47.43
2017-09-26T19:53:09.474Z,54.27
2017-09-26T19:55:35.755Z,56.50
2017-09-26T19:58:02.741Z,52.40
2017-09-26T20:00:28.994Z,54.13
2017-09-26T20:02:55.305Z,54.37
2017-09-26T20:05:21.615Z,59.10
2017-09-26T20:07:47.898Z,55.13
2017-09-26T20:10:14.135Z,57.13
2017-09-26T20:12:40.434Z,60.17
2017-09-26T20:15:06.760Z,58.80
2017-09-26T20:17:33.004Z,66.50
2017-09-26T20:19:59.318Z,54.87
2017-09-26T20:22:25.674Z,61.00
2017-09-26T20:24:51.914Z,59.57
2017-09-26T20:27:18.587Z,65.90
2017-09-26T20:29:44.861Z,53.83
2017-09-26T20:32:11.090Z,56.97
2017-09-26T20:34:37.430Z,57.97
2017-09-26T20:37:03.691Z,57.53
2017-09-26T20:39:29.950Z,68.80
2017-09-26T20:41:56.189Z,59.63
2017-09-26T20:44:22.450Z,56.70
2017-09-26T20:46:48.682Z,61.87
2017-09-26T20:49:14.939Z,61.17
2017-09-26T20:51:41.215Z,55.33
2017-09-26T20:54:08.219Z,56.63
2017-09-26T20:56:34.498Z,60.97
2017-09-26T20:59:00.787Z,63.17
2017-09-26T21:01:27.011Z,66.60
2017-09-26T21:03:53.252Z,60.97
2017-09-26T21:06:20.238Z,60.67
2017-09-26T21:08:46.478Z,60.37
2017-09-26T21:11:12.723Z,65.30
2017-09-26T21:13:38.991Z,60.83
2017-09-26T21:16:05.261Z,56.13
2017-09-26T21:18:31.571Z,58.00
2017-09-26T21:20:57.890Z,68.50
2017-09-26T21:23:24.117Z,62.60
2017-09-26T21:25:50.403Z,62.73
2017-09-26T21:28:16.939Z,64.67
2017-09-26T21:30:43.188Z,62.87
2017-09-26T21:33:09.453Z,59.60
2017-09-26T21:35:35.754Z,66.73
2017-09-26T21:38:02.050Z,60.73
2017-09-26T21:40:28.299Z,64.93
2017-09-26T21:42:55.291Z,60.90
2017-09-26T21:45:21.522Z,66.63
2017-09-26T21:47:47.753Z,67.40
2017-09-26T21:50:14.058Z,67.83
2017-09-26T21:52:40.302Z,74.83
2017-09-26T21:55:06.523Z,63.57
2017-09-26T21:57:32.754Z,75.70
2017-09-26T21:59:58.991Z,70.10
2017-09-26T22:02:25.227Z,63.27
2017-09-26T22:04:51.482Z,65.10
2017-09-26T22:07:17.735Z,61.43
2017-09-26T22:09:43.966Z,68.63
2017-09-26T22:12:11.263Z,74.13
2017-09-26T22:14:37.492Z,68.50
2017-09-26T22:17:04.519Z,67.97
2017-09-26T22:19:30.766Z,73.03
2017-09-26T22:21:57.737Z,67.87
2017-09-26T22:24:23.966Z,63.57
2017-09-26T22:26:50.259Z,71.90
2017-09-26T22:29:16.774Z,67.00
2017-09-26T22:31:43.011Z,63.70
2017-09-26T22:34:09.257Z,72.40
2017-09-26T22:36:35.509Z,79.83
2017-09-26T22:39:01.879Z,63.27
2017-09-26T22:41:28.158Z,68.50
2017-09-26T22:43:54.394Z,68.10
2017-09-26T22:46:20.618Z,73.50
2017-09-26T22:48:46.882Z,72.73
2017-09-26T22:51:13.121Z,61.73
2017-09-26T22:53:39.348Z,70.53
2017-09-26T22:56:05.582Z,62.87
2017-09-26T22:58:32.821Z,64.30
2017-09-26T23:00:59.062Z,73.20
2017-09-26T23:03:25.301Z,71.97
2017-09-26T23:05:51.566Z,67.60
2017-09-26T23:08:17.818Z,67.87
2017-09-26T23:10:44.086Z,71.90
2017-09-26T23:13:10.310Z,68.70
2017-09-26T23:15:37.298Z,73.23
2017-09-26T23:18:03.566Z,69.17
2017-09-26T23:20:29.797Z,83.70
2017-09-26T23:22:56.022Z,61.13
2017-09-26T23:25:22.276Z,72.33
2017-09-26T23:27:48.512Z,67.50
2017-09-26T23:30:14.982Z,66.03
2017-09-26T23:32:41.230Z,68.70
2017-09-26T23:35:07.478Z,66.77
2017-09-26T23:37:33.727Z,62.70
2017-09-26T23:39:59.974Z,68.70
2017-09-26T23:42:26.963Z,64.33
2017-09-26T23:44:53.186Z,65.13
2017-09-26T23:47:19.423Z,66.00
2017-09-26T23:49:45.655Z,60.93
2017-09-26T23:52:11.898Z,63.07
2017-09-26T23:54:38.158Z,63.00
2017-09-26T23:57:04.395Z,57.63
2017-09-26T23:59:30.641Z,62.03
